createdAt,value
2018-12-05T00:00:02.693Z,78.8
2018-12-05T00:01:02.711Z,79.08
2018-12-05T00:02:02.717Z,79.08
2018-12-05T00:03:02.735Z,78.89
2018-12-05T00:04:03.013Z,79.17
2018-12-05T00:05:02.771Z,79.27
2018-12-05T00:06:03.053Z,79.17
2018-12-05T00:07:03.065Z,78.89
2018-12-05T00:08:03.083Z,79.36
2018-12-05T00:09:02.836Z,79.08
2018-12-05T00:10:03.127Z,79.08
2018-12-05T00:11:03.137Z,79.17
2018-12-05T00:12:03.151Z,79.08
2018-12-05T00:13:03.167Z,78.99
2018-12-05T00:14:03.194Z,78.99
2018-12-05T00:15:03.202Z,79.17
2018-12-05T00:16:02.964Z,78.99
2018-12-05T00:17:02.984Z,79.17
2018-12-05T00:18:02.997Z,79.17
2018-12-05T00:19:03.274Z,79.17
2018-12-05T00:20:03.029Z,78.99
2018-12-05T00:21:03.048Z,79.27
2018-12-05T00:22:03.325Z,79.27
2018-12-05T00:23:03.357Z,79.36
2018-12-05T00:24:03.106Z,79.36
2018-12-05T00:25:03.124Z,79.27
2018-12-05T00:26:03.135Z,79.55
2018-12-05T00:27:03.146Z,78.99
2018-12-05T00:28:03.168Z,78.7
2018-12-05T00:29:03.187Z,79.46
2018-12-05T00:30:03.201Z,79.27
2018-12-05T00:31:03.226Z,79.46
2018-12-05T00:32:03.237Z,79.27
2018-12-05T00:33:03.257Z,78.8
2018-12-05T00:34:03.279Z,78.8
2018-12-05T00:35:03.294Z,78.99
2018-12-05T00:36:03.313Z,78.89
2018-12-05T00:37:03.582Z,78.99
2018-12-05T00:38:03.595Z,78.89
2018-12-05T00:39:03.357Z,78.99
2018-12-05T00:40:03.374Z,78.99
2018-12-05T00:41:03.660Z,78.7
2018-12-05T00:42:03.678Z,78.7
2018-12-05T00:43:03.425Z,78.89
2018-12-05T00:44:03.718Z,78.99
2018-12-05T00:45:03.725Z,79.08
2018-12-05T00:46:03.486Z,78.89
2018-12-05T00:47:03.503Z,78.99
2018-12-05T00:48:03.767Z,78.66
2018-12-05T00:49:03.538Z,78.51
2018-12-05T00:50:03.561Z,78.7
2018-12-05T00:51:03.563Z,78.61
2018-12-05T00:52:03.845Z,78.7
2018-12-05T00:53:03.854Z,78.61
2018-12-05T00:54:03.871Z,78.7
2018-12-05T00:55:03.892Z,78.7
2018-12-05T00:56:03.658Z,78.7
2018-12-05T00:57:03.932Z,78.7
2018-12-05T00:58:03.960Z,78.7
2018-12-05T00:59:03.706Z,78.8
2018-12-05T01:00:03.982Z,78.8
2018-12-05T01:01:03.744Z,78.8
2018-12-05T01:02:03.755Z,78.51
2018-12-05T01:03:04.028Z,78.61
2018-12-05T01:04:03.791Z,78.8
2018-12-05T01:05:03.815Z,78.61
2018-12-05T01:06:03.823Z,78.51
2018-12-05T01:07:03.843Z,78.7
2018-12-05T01:08:04.116Z,78.61
2018-12-05T01:09:03.874Z,78.51
2018-12-05T01:10:03.895Z,78.8
2018-12-05T01:11:04.180Z,78.89
2018-12-05T01:12:04.197Z,78.8
2018-12-05T01:13:03.939Z,78.99
2018-12-05T01:14:04.221Z,78.99
2018-12-05T01:15:03.980Z,78.99
2018-12-05T01:16:03.998Z,78.99
2018-12-05T01:17:04.015Z,78.99
2018-12-05T01:18:04.036Z,78.51
2018-12-05T01:19:04.047Z,78.42
2018-12-05T01:20:04.079Z,78.51
2018-12-05T01:21:04.087Z,78.32
2018-12-05T01:22:04.100Z,78.51
2018-12-05T01:23:04.129Z,78.42
2018-12-05T01:24:04.487Z,78.51
2018-12-05T01:25:04.154Z,78.42
2018-12-05T01:26:04.170Z,78.42
2018-12-05T01:27:04.455Z,78.42
2018-12-05T01:28:04.205Z,78.32
2018-12-05T01:29:04.221Z,78.42
2018-12-05T01:30:04.245Z,78.61
2018-12-05T01:31:04.255Z,78.32
2018-12-05T01:32:04.335Z,78.03
2018-12-05T01:33:04.288Z,78.03
2018-12-05T01:34:04.306Z,78.51
2018-12-05T01:35:04.587Z,78.32
2018-12-05T01:36:04.601Z,78.61
2018-12-05T01:37:04.363Z,78.51
2018-12-05T01:38:04.377Z,78.32
2018-12-05T01:39:04.649Z,78.42
2018-12-05T01:40:04.669Z,78.03
2018-12-05T01:41:04.445Z,78.03
2018-12-05T01:42:04.451Z,77.84
2018-12-05T01:43:04.475Z,78.42
2018-12-05T01:44:04.737Z,78.32
2018-12-05T01:45:04.756Z,78.42
2018-12-05T01:46:04.775Z,77.84
2018-12-05T01:47:04.536Z,78.42
2018-12-05T01:48:04.551Z,78.51
2018-12-05T01:49:04.827Z,77.94
2018-12-05T01:50:04.851Z,78.51
2018-12-05T01:51:04.599Z,78.42
2018-12-05T01:52:04.621Z,77.94
2018-12-05T01:53:04.908Z,77.94
2018-12-05T01:54:04.650Z,78.32
2018-12-05T01:55:04.930Z,78.32
2018-12-05T01:56:04.694Z,78.32
2018-12-05T01:57:04.704Z,78.32
2018-12-05T01:58:04.721Z,78.23
2018-12-05T01:59:04.994Z,78.03
2018-12-05T02:00:05.016Z,78.51
2018-12-05T02:01:05.035Z,78.42
2018-12-05T02:02:04.848Z,78.32
2018-12-05T02:03:05.067Z,78.32
2018-12-05T02:04:05.081Z,78.32
2018-12-05T02:05:04.852Z,78.03
2018-12-05T02:06:04.865Z,77.84
2018-12-05T02:07:05.151Z,78.03
2018-12-05T02:08:04.898Z,77.94
2018-12-05T02:09:04.911Z,78.7
2018-12-05T02:10:04.935Z,78.23
2018-12-05T02:11:04.952Z,78.03
2018-12-05T02:12:05.219Z,78.61
2018-12-05T02:13:05.239Z,78.42
2018-12-05T02:14:05.255Z,78.42
2018-12-05T02:15:05.273Z,78.32
2018-12-05T02:16:05.038Z,78.32
2018-12-05T02:17:05.047Z,78.51
2018-12-05T02:18:05.068Z,78.51
2018-12-05T02:19:05.087Z,78.32
2018-12-05T02:20:05.108Z,78.03
2018-12-05T02:21:05.118Z,78.42
2018-12-05T02:22:05.405Z,78.51
2018-12-05T02:23:05.414Z,78.42
2018-12-05T02:24:05.169Z,78.23
2018-12-05T02:25:05.531Z,78.32
2018-12-05T02:26:05.473Z,78.42
2018-12-05T02:27:05.219Z,78.32
2018-12-05T02:28:05.239Z,78.42
2018-12-05T02:29:05.258Z,78.42
2018-12-05T02:30:05.540Z,78.32
2018-12-05T02:31:05.290Z,78.13
2018-12-05T02:32:05.313Z,78.32
2018-12-05T02:33:05.585Z,78.13
2018-12-05T02:34:05.604Z,78.03
2018-12-05T02:35:05.633Z,78.13
2018-12-05T02:36:05.381Z,78.03
2018-12-05T02:37:05.395Z,78.42
2018-12-05T02:38:05.411Z,78.23
2018-12-05T02:39:05.451Z,78.32
2018-12-05T02:40:05.458Z,78.13
2018-12-05T02:41:05.464Z,78.42
2018-12-05T02:42:05.486Z,78.42
2018-12-05T02:43:05.759Z,78.13
2018-12-05T02:44:05.525Z,78.32
2018-12-05T02:45:05.795Z,78.13
2018-12-05T02:46:05.812Z,78.13
2018-12-05T02:47:05.566Z,78.13
2018-12-05T02:48:05.588Z,78.32
2018-12-05T02:49:05.868Z,78.32
2018-12-05T02:50:05.873Z,78.42
2018-12-05T02:51:05.892Z,78.42
2018-12-05T02:52:05.908Z,77.94
2018-12-05T02:53:05.670Z,77.75
2018-12-05T02:54:05.690Z,78.32
2018-12-05T02:55:05.965Z,78.42
2018-12-05T02:56:05.718Z,78.23
2018-12-05T02:57:05.753Z,78.23
2018-12-05T02:58:05.764Z,77.94
2018-12-05T02:59:06.034Z,77.75
2018-12-05T03:00:06.050Z,77.75
2018-12-05T03:01:06.076Z,77.94
2018-12-05T03:02:05.825Z,77.75
2018-12-05T03:03:05.871Z,77.84
2018-12-05T03:04:05.862Z,77.75
2018-12-05T03:05:07.856Z,78.03
2018-12-05T03:06:05.894Z,77.94
2018-12-05T03:07:06.169Z,77.75
2018-12-05T03:08:06.194Z,77.75
2018-12-05T03:09:06.216Z,78.03
2018-12-05T03:10:05.965Z,77.94
2018-12-05T03:11:05.987Z,77.84
2018-12-05T03:12:05.995Z,77.94
2018-12-05T03:13:06.021Z,78.51
2018-12-05T03:14:06.037Z,78.32
2018-12-05T03:15:06.312Z,77.75
2018-12-05T03:16:06.323Z,77.66
2018-12-05T03:17:06.341Z,77.94
2018-12-05T03:18:06.103Z,77.94
2018-12-05T03:19:06.120Z,78.51
2018-12-05T03:20:07.919Z,78.42
2018-12-05T03:21:06.413Z,78.51
2018-12-05T03:22:06.166Z,78.19
2018-12-05T03:23:06.189Z,77.94
2018-12-05T03:24:06.457Z,78.32
2018-12-05T03:25:06.216Z,78.42
2018-12-05T03:26:06.236Z,78.42
2018-12-05T03:27:06.253Z,78.38
2018-12-05T03:28:06.268Z,78.42
2018-12-05T03:29:06.832Z,77.94
2018-12-05T03:30:06.566Z,78.42
2018-12-05T03:31:06.600Z,78.42
2018-12-05T03:32:06.601Z,78.51
2018-12-05T03:33:06.369Z,78.42
2018-12-05T03:34:06.368Z,78.42
2018-12-05T03:35:06.648Z,78.32
2018-12-05T03:36:06.673Z,77.84
2018-12-05T03:37:06.434Z,78.51
2018-12-05T03:38:06.438Z,78.42
2018-12-05T03:39:06.457Z,78.32
2018-12-05T03:40:06.736Z,78.42
2018-12-05T03:41:06.745Z,78.51
2018-12-05T03:42:06.774Z,78.51
2018-12-05T03:43:06.540Z,78.42
2018-12-05T03:44:06.818Z,78.51
2018-12-05T03:45:06.837Z,78.38
2018-12-05T03:46:06.588Z,78.42
2018-12-05T03:47:06.858Z,78.42
2018-12-05T03:48:06.610Z,78.42
2018-12-05T03:49:06.629Z,78.32
2018-12-05T03:50:06.656Z,78.32
2018-12-05T03:51:06.669Z,78.42
2018-12-05T03:52:06.944Z,78.51
2018-12-05T03:53:06.699Z,78.42
2018-12-05T03:54:06.711Z,77.75
2018-12-05T03:55:06.990Z,78.61
2018-12-05T03:56:06.753Z,78.51
2018-12-05T03:57:06.769Z,78.42
2018-12-05T03:58:06.812Z,78.51
2018-12-05T03:59:07.138Z,78.42
2018-12-05T04:00:07.075Z,78.32
2018-12-05T04:01:07.105Z,78.03
2018-12-05T04:02:06.859Z,78.03
2018-12-05T04:03:06.867Z,78.42
2018-12-05T04:04:06.885Z,78.42
2018-12-05T04:05:07.194Z,78.23
2018-12-05T04:06:06.921Z,78.32
2018-12-05T04:07:07.208Z,78.32
2018-12-05T04:08:06.964Z,78.38
2018-12-05T04:09:07.233Z,78.32
2018-12-05T04:10:07.002Z,78.23
2018-12-05T04:11:07.013Z,78.23
2018-12-05T04:12:07.033Z,78.28
2018-12-05T04:13:07.044Z,78.47
2018-12-05T04:14:07.056Z,78.47
2018-12-05T04:15:07.075Z,78.51
2018-12-05T04:16:07.347Z,78.28
2018-12-05T04:17:07.368Z,78.28
2018-12-05T04:18:07.398Z,78.47
2018-12-05T04:19:07.157Z,78.42
2018-12-05T04:20:07.434Z,78.38
2018-12-05T04:21:07.434Z,78.38
2018-12-05T04:22:07.247Z,78.42
2018-12-05T04:23:07.481Z,78.28
2018-12-05T04:24:07.484Z,78.28
2018-12-05T04:25:07.257Z,78.19
2018-12-05T04:26:07.262Z,78.28
2018-12-05T04:27:07.283Z,78.19
2018-12-05T04:28:07.557Z,78.28
2018-12-05T04:29:07.570Z,78.19
2018-12-05T04:30:07.588Z,78.19
2018-12-05T04:31:07.350Z,78.19
2018-12-05T04:32:07.371Z,78.56
2018-12-05T04:33:07.383Z,78.47
2018-12-05T04:34:07.664Z,78.19
2018-12-05T04:35:07.423Z,78.38
2018-12-05T04:36:07.691Z,78.19
2018-12-05T04:37:07.722Z,78.38
2018-12-05T04:38:07.469Z,78.28
2018-12-05T04:39:07.496Z,78.19
2018-12-05T04:40:07.783Z,78.19
2018-12-05T04:41:07.776Z,78.38
2018-12-05T04:42:07.801Z,78.38
2018-12-05T04:43:07.553Z,78.38
2018-12-05T04:44:07.582Z,78.56
2018-12-05T04:45:07.855Z,78.28
2018-12-05T04:46:07.872Z,78
2018-12-05T04:47:07.619Z,78
2018-12-05T04:48:07.646Z,78.47
2018-12-05T04:49:07.912Z,78.47
2018-12-05T04:50:07.944Z,78.28
2018-12-05T04:51:07.714Z,78.28
2018-12-05T04:52:07.716Z,78.19
2018-12-05T04:53:07.985Z,78.19
2018-12-05T04:54:07.752Z,78.38
2018-12-05T04:55:07.759Z,78
2018-12-05T04:56:08.043Z,78.28
2018-12-05T04:57:08.052Z,78.28
2018-12-05T04:58:07.820Z,78.38
2018-12-05T04:59:07.839Z,78.56
2018-12-05T05:00:07.842Z,78
2018-12-05T05:01:08.113Z,78.38
2018-12-05T05:02:08.135Z,78
2018-12-05T05:03:08.151Z,78.47
2018-12-05T05:04:07.911Z,78.28
2018-12-05T05:05:07.934Z,78.47
2018-12-05T05:06:07.944Z,78.19
2018-12-05T05:07:09.618Z,78.38
2018-12-05T05:08:08.241Z,78.47
2018-12-05T05:09:08.257Z,77.9
2018-12-05T05:10:08.016Z,77.81
2018-12-05T05:11:08.294Z,78.19
2018-12-05T05:12:08.306Z,78.09
2018-12-05T05:13:08.066Z,78.28
2018-12-05T05:14:08.080Z,78.38
2018-12-05T05:15:08.358Z,78.28
2018-12-05T05:16:08.383Z,78.38
2018-12-05T05:17:08.132Z,78.38
2018-12-05T05:18:08.411Z,78.47
2018-12-05T05:19:08.169Z,78.38
2018-12-05T05:20:08.495Z,78.47
2018-12-05T05:21:08.462Z,78.28
2018-12-05T05:22:08.224Z,78.38
2018-12-05T05:23:08.240Z,77.9
2018-12-05T05:24:08.514Z,77.81
2018-12-05T05:25:08.536Z,78.28
2018-12-05T05:26:08.555Z,78.28
2018-12-05T05:27:08.303Z,78.47
2018-12-05T05:28:08.320Z,78.28
2018-12-05T05:29:08.605Z,78.28
2018-12-05T05:30:08.354Z,78.47
2018-12-05T05:31:08.628Z,78.47
2018-12-05T05:32:08.655Z,78.28
2018-12-05T05:33:08.415Z,78.19
2018-12-05T05:34:08.680Z,78.28
2018-12-05T05:35:08.708Z,78.28
2018-12-05T05:36:08.461Z,78
2018-12-05T05:37:08.488Z,78.28
2018-12-05T05:38:08.761Z,78.28
2018-12-05T05:39:08.506Z,78.28
2018-12-05T05:40:08.782Z,78.28
2018-12-05T05:41:08.539Z,78.38
2018-12-05T05:42:08.554Z,78.28
2018-12-05T05:43:08.575Z,78.09
2018-12-05T05:44:10.257Z,78.09
2018-12-05T05:45:08.607Z,78.19
2018-12-05T05:46:08.632Z,78.28
2018-12-05T05:47:08.900Z,78.19
2018-12-05T05:48:08.932Z,78.28
2018-12-05T05:49:08.681Z,78.28
2018-12-05T05:50:08.989Z,78.38
2018-12-05T05:51:08.708Z,78.28
2018-12-05T05:52:08.732Z,78.47
2018-12-05T05:53:08.747Z,78.38
2018-12-05T05:54:08.772Z,78.47
2018-12-05T05:55:08.782Z,78.38
2018-12-05T05:56:09.058Z,78.38
2018-12-05T05:57:08.814Z,78.09
2018-12-05T05:58:08.834Z,78.38
2018-12-05T05:59:09.114Z,78.38
2018-12-05T06:00:08.871Z,78.38
2018-12-05T06:01:08.881Z,78.47
2018-12-05T06:02:08.898Z,78.47
2018-12-05T06:03:08.920Z,78.38
2018-12-05T06:04:09.187Z,78.38
2018-12-05T06:05:08.956Z,78.09
2018-12-05T06:06:08.973Z,78.19
2018-12-05T06:07:08.983Z,78.09
2018-12-05T06:08:09.002Z,78
2018-12-05T06:09:09.275Z,78.28
2018-12-05T06:10:09.053Z,78.09
2018-12-05T06:11:09.050Z,78
2018-12-05T06:12:09.322Z,78.19
2018-12-05T06:13:09.344Z,78.19
2018-12-05T06:14:09.099Z,78.09
2018-12-05T06:15:09.380Z,78.38
2018-12-05T06:16:09.134Z,78.38
2018-12-05T06:17:09.409Z,78.38
2018-12-05T06:18:09.427Z,78.38
2018-12-05T06:19:09.189Z,78.19
2018-12-05T06:20:09.460Z,78.47
2018-12-05T06:21:09.219Z,78.38
2018-12-05T06:22:09.245Z,78.38
2018-12-05T06:23:09.513Z,78.28
2018-12-05T06:24:09.277Z,78.19
2018-12-05T06:25:09.293Z,78
2018-12-05T06:26:09.577Z,78
2018-12-05T06:27:09.321Z,78.28
2018-12-05T06:28:09.595Z,78.28
2018-12-05T06:29:09.355Z,78.38
2018-12-05T06:30:09.373Z,78.28
2018-12-05T06:31:09.390Z,78.47
2018-12-05T06:32:09.673Z,78.38
2018-12-05T06:33:09.420Z,78.28
2018-12-05T06:34:09.705Z,78.47
2018-12-05T06:35:09.714Z,78.28
2018-12-05T06:36:09.477Z,78.47
2018-12-05T06:37:09.750Z,78.38
2018-12-05T06:38:09.506Z,78.38
2018-12-05T06:39:09.543Z,78.47
2018-12-05T06:40:09.546Z,78.38
2018-12-05T06:41:09.557Z,78.47
2018-12-05T06:42:09.829Z,78.38
2018-12-05T06:43:09.597Z,78.38
2018-12-05T06:44:09.608Z,78.19
2018-12-05T06:45:09.884Z,78.28
2018-12-05T06:46:09.644Z,78.38
2018-12-05T06:47:09.659Z,78
2018-12-05T06:48:09.934Z,78.09
2018-12-05T06:49:09.960Z,78.38
2018-12-05T06:50:09.708Z,78.28
2018-12-05T06:51:09.997Z,78.38
2018-12-05T06:52:10.010Z,78.19
2018-12-05T06:53:10.018Z,78.47
2018-12-05T06:54:09.786Z,78.19
2018-12-05T06:55:09.796Z,77.9
2018-12-05T06:56:10.066Z,78.28
2018-12-05T06:57:10.086Z,78.19
2018-12-05T06:58:10.112Z,78.19
2018-12-05T06:59:09.873Z,77.81
2018-12-05T07:00:10.724Z,77.81
2018-12-05T07:01:10.165Z,78.19
2018-12-05T07:02:09.915Z,77.62
2018-12-05T07:03:10.185Z,77.71
2018-12-05T07:04:09.945Z,77.9
2018-12-05T07:05:09.973Z,78.47
2018-12-05T07:06:10.240Z,77.9
2018-12-05T07:07:10.003Z,77.9
2018-12-05T07:08:10.016Z,77.81
2018-12-05T07:09:10.287Z,77.9
2018-12-05T07:10:10.048Z,77.9
2018-12-05T07:11:10.325Z,77.9
2018-12-05T07:12:10.083Z,77.9
2018-12-05T07:13:10.357Z,77.9
2018-12-05T07:14:10.373Z,77.81
2018-12-05T07:15:10.389Z,77.71
2018-12-05T07:16:10.418Z,77.9
2018-12-05T07:17:10.172Z,77.62
2018-12-05T07:18:10.456Z,77.9
2018-12-05T07:19:10.198Z,77.81
2018-12-05T07:20:10.218Z,77.71
2018-12-05T07:21:10.239Z,77.81
2018-12-05T07:22:10.262Z,77.9
2018-12-05T07:23:10.266Z,78.09
2018-12-05T07:24:11.281Z,78.09
2018-12-05T07:25:10.299Z,77.71
2018-12-05T07:26:10.578Z,77.9
2018-12-05T07:27:10.334Z,78.09
2018-12-05T07:28:10.365Z,78.09
2018-12-05T07:29:10.639Z,77.71
2018-12-05T07:30:10.645Z,77.33
2018-12-05T07:31:10.404Z,78
2018-12-05T07:32:10.688Z,77.81
2018-12-05T07:33:10.436Z,77.9
2018-12-05T07:34:10.712Z,77.81
2018-12-05T07:35:10.477Z,77.9
2018-12-05T07:36:10.748Z,77.9
2018-12-05T07:37:10.759Z,77.9
2018-12-05T07:38:10.789Z,77.52
2018-12-05T07:39:10.542Z,77.52
2018-12-05T07:40:10.813Z,77.43
2018-12-05T07:41:10.851Z,77.81
2018-12-05T07:42:10.597Z,77.62
2018-12-05T07:43:10.607Z,77.62
2018-12-05T07:44:10.634Z,77.52
2018-12-05T07:45:10.646Z,77.81
2018-12-05T07:46:10.655Z,77.62
2018-12-05T07:47:10.941Z,77.14
2018-12-05T07:48:10.689Z,77.81
2018-12-05T07:49:10.973Z,77.9
2018-12-05T07:50:10.727Z,78.09
2018-12-05T07:51:11.000Z,77.43
2018-12-05T07:52:10.759Z,78
2018-12-05T07:53:11.044Z,78.09
2018-12-05T07:54:11.046Z,78.19
2018-12-05T07:55:11.064Z,77.62
2018-12-05T07:56:10.835Z,77.33
2018-12-05T07:57:11.108Z,77.33
2018-12-05T07:58:10.864Z,77.43
2018-12-05T07:59:11.131Z,77.24
2018-12-05T08:00:10.892Z,77.43
2018-12-05T08:01:10.908Z,77.52
2018-12-05T08:02:10.931Z,77.33
2018-12-05T08:03:10.940Z,77.62
2018-12-05T08:04:10.959Z,77.52
2018-12-05T08:05:11.304Z,77.33
2018-12-05T08:06:11.261Z,77.62
2018-12-05T08:07:11.275Z,77.43
2018-12-05T08:08:11.023Z,77.52
2018-12-05T08:09:11.050Z,77.24
2018-12-05T08:10:11.055Z,77.24
2018-12-05T08:11:11.074Z,77.24
2018-12-05T08:12:11.091Z,77.05
2018-12-05T08:13:11.364Z,77.33
2018-12-05T08:14:11.127Z,77.05
2018-12-05T08:15:11.143Z,77.24
2018-12-05T08:16:11.164Z,77.24
2018-12-05T08:17:11.183Z,77.24
2018-12-05T08:18:11.191Z,76.95
2018-12-05T08:19:11.472Z,76.57
2018-12-05T08:20:11.488Z,76.57
2018-12-05T08:21:11.519Z,76.95
2018-12-05T08:22:11.515Z,76.9
2018-12-05T08:23:11.313Z,77.09
2018-12-05T08:24:11.557Z,76.71
2018-12-05T08:25:11.310Z,76.8
2018-12-05T08:26:11.599Z,76.61
2018-12-05T08:27:11.345Z,76.52
2018-12-05T08:28:11.623Z,76.9
2018-12-05T08:29:11.376Z,76.52
2018-12-05T08:30:11.401Z,76.42
2018-12-05T08:31:11.670Z,76.23
2018-12-05T08:32:11.427Z,76.61
2018-12-05T08:33:11.708Z,76.52
2018-12-05T08:34:11.461Z,76.61
2018-12-05T08:35:11.738Z,76.32
2018-12-05T08:36:11.765Z,76.04
2018-12-05T08:37:11.513Z,76.23
2018-12-05T08:38:11.784Z,76.23
2018-12-05T08:39:11.548Z,76.04
2018-12-05T08:40:11.567Z,76.23
2018-12-05T08:41:11.851Z,76.04
2018-12-05T08:42:11.598Z,76.23
2018-12-05T08:43:11.613Z,75.85
2018-12-05T08:44:11.630Z,76.04
2018-12-05T08:45:11.652Z,76.14
2018-12-05T08:46:11.933Z,76.23
2018-12-05T08:47:11.686Z,76.42
2018-12-05T08:48:11.706Z,76.04
2018-12-05T08:49:11.715Z,75.95
2018-12-05T08:50:11.735Z,75.95
2018-12-05T08:51:12.010Z,76.23
2018-12-05T08:52:12.043Z,76.04
2018-12-05T08:53:11.784Z,75.67
2018-12-05T08:54:12.058Z,75.57
2018-12-05T08:55:11.824Z,75.67
2018-12-05T08:56:11.833Z,75.76
2018-12-05T08:57:12.458Z,75.85
2018-12-05T08:58:12.128Z,75.95
2018-12-05T08:59:12.146Z,75.95
2018-12-05T09:00:11.903Z,75.76
2018-12-05T09:01:11.930Z,75.85
2018-12-05T09:02:12.197Z,75.85
2018-12-05T09:03:11.960Z,75.95
2018-12-05T09:04:11.972Z,75.38
2018-12-05T09:05:12.261Z,75.85
2018-12-05T09:06:12.004Z,75.38
2018-12-05T09:07:12.031Z,75.38
2018-12-05T09:08:12.295Z,75.85
2018-12-05T09:09:12.322Z,75.28
2018-12-05T09:10:12.346Z,75.38
2018-12-05T09:11:12.090Z,75.28
2018-12-05T09:12:12.380Z,75.28
2018-12-05T09:13:12.138Z,75.38
2018-12-05T09:14:12.398Z,75
2018-12-05T09:15:12.430Z,75.57
2018-12-05T09:16:12.180Z,75
2018-12-05T09:17:12.193Z,75.09
2018-12-05T09:18:12.214Z,75.28
2018-12-05T09:19:12.487Z,75.47
2018-12-05T09:20:12.506Z,75.42
2018-12-05T09:21:13.366Z,75.51
2018-12-05T09:22:12.278Z,74.62
2018-12-05T09:23:12.298Z,75.04
2018-12-05T09:24:12.575Z,74.85
2018-12-05T09:25:12.601Z,75.13
2018-12-05T09:26:12.344Z,74.85
2018-12-05T09:27:12.372Z,74.66
2018-12-05T09:28:12.640Z,74.37
2018-12-05T09:29:12.667Z,74.75
2018-12-05T09:30:12.422Z,74.66
2018-12-05T09:31:12.443Z,74.47
2018-12-05T09:32:12.704Z,74.37
2018-12-05T09:33:12.466Z,74.56
2018-12-05T09:34:12.496Z,74.56
2018-12-05T09:35:12.760Z,74.37
2018-12-05T09:36:12.785Z,74.56
2018-12-05T09:37:12.819Z,74.37
2018-12-05T09:38:12.550Z,74.56
2018-12-05T09:39:12.830Z,74.27
2018-12-05T09:40:12.598Z,74.56
2018-12-05T09:41:12.616Z,74.56
2018-12-05T09:42:12.624Z,74.85
2018-12-05T09:43:12.649Z,74.37
2018-12-05T09:44:12.914Z,74.66
2018-12-05T09:45:12.940Z,74.66
2018-12-05T09:46:12.687Z,74.75
2018-12-05T09:47:18.156Z,74.66
2018-12-05T09:48:12.978Z,74.75
2018-12-05T09:49:13.012Z,74.66
2018-12-05T09:50:12.758Z,74.18
2018-12-05T09:51:13.047Z,74.56
2018-12-05T09:52:12.789Z,74.18
2018-12-05T09:53:13.073Z,74.66
2018-12-05T09:54:13.082Z,74.27
2018-12-05T09:55:13.102Z,73.99
2018-12-05T09:56:13.120Z,74.18
2018-12-05T09:57:13.148Z,74.66
2018-12-05T09:58:12.900Z,74.18
2018-12-05T09:59:13.172Z,74.27
2018-12-05T10:00:12.973Z,74.18
2018-12-05T10:01:12.945Z,74.18
2018-12-05T10:02:13.219Z,74.08
2018-12-05T10:03:13.239Z,74.08
2018-12-05T10:04:14.420Z,73.8
2018-12-05T10:05:13.025Z,73.99
2018-12-05T10:06:13.111Z,74.18
2018-12-05T10:07:13.054Z,74.27
2018-12-05T10:08:13.342Z,74.08
2018-12-05T10:09:13.086Z,74.27
2018-12-05T10:10:13.100Z,74.18
2018-12-05T10:11:13.125Z,73.99
2018-12-05T10:12:13.135Z,73.9
2018-12-05T10:13:13.154Z,73.8
2018-12-05T10:14:13.188Z,74.08
2018-12-05T10:15:13.188Z,74.27
2018-12-05T10:16:13.204Z,73.99
2018-12-05T10:17:13.226Z,74.47
2018-12-05T10:18:13.502Z,74.27
2018-12-05T10:19:13.261Z,74.08
2018-12-05T10:20:13.274Z,74.47
2018-12-05T10:21:13.576Z,74.08
2018-12-05T10:22:13.312Z,74.27
2018-12-05T10:23:13.588Z,74.08
2018-12-05T10:24:13.610Z,74.18
2018-12-05T10:25:13.634Z,74.18
2018-12-05T10:26:13.638Z,74.37
2018-12-05T10:27:13.654Z,74.08
2018-12-05T10:28:13.674Z,74.18
2018-12-05T10:29:13.690Z,73.9
2018-12-05T10:30:13.455Z,73.52
2018-12-05T10:31:13.471Z,74.18
2018-12-05T10:32:13.490Z,73.52
2018-12-05T10:33:13.509Z,74.18
2018-12-05T10:34:13.773Z,74.18
2018-12-05T10:35:13.537Z,73.71
2018-12-05T10:36:13.565Z,74.27
2018-12-05T10:37:13.569Z,74.47
2018-12-05T10:38:13.860Z,73.99
2018-12-05T10:39:13.604Z,74.37
2018-12-05T10:40:13.892Z,74.27
2018-12-05T10:41:13.637Z,74.51
2018-12-05T10:42:13.925Z,74.18
2018-12-05T10:43:13.675Z,74.27
2018-12-05T10:44:13.958Z,74.31
2018-12-05T10:45:13.980Z,74.31
2018-12-05T10:46:13.728Z,74.37
2018-12-05T10:47:13.744Z,74.41
2018-12-05T10:48:14.016Z,74.31
2018-12-05T10:49:14.050Z,73.93
2018-12-05T10:50:14.053Z,73.84
2018-12-05T10:51:13.811Z,73.84
2018-12-05T10:52:13.833Z,74.03
2018-12-05T10:53:13.847Z,74.41
2018-12-05T10:54:14.132Z,74.03
2018-12-05T10:55:14.144Z,74.31
2018-12-05T10:56:14.172Z,74.03
2018-12-05T10:57:13.914Z,73.93
2018-12-05T10:58:13.939Z,73.84
2018-12-05T10:59:14.207Z,74.12
2018-12-05T11:00:14.223Z,73.93
2018-12-05T11:01:14.242Z,74.22
2018-12-05T11:02:14.004Z,74.12
2018-12-05T11:03:14.018Z,73.55
2018-12-05T11:04:14.042Z,73.74
2018-12-05T11:05:14.058Z,73.65
2018-12-05T11:06:14.366Z,73.55
2018-12-05T11:07:14.092Z,74.03
2018-12-05T11:08:14.108Z,73.46
2018-12-05T11:09:14.391Z,73.74
2018-12-05T11:10:14.139Z,73.84
2018-12-05T11:11:14.418Z,73.93
2018-12-05T11:12:14.447Z,74.03
2018-12-05T11:13:14.196Z,73.36
2018-12-05T11:14:14.209Z,73.65
2018-12-05T11:15:14.498Z,73.36
2018-12-05T11:16:14.515Z,73.65
2018-12-05T11:17:14.533Z,73.65
2018-12-05T11:18:14.541Z,73.27
2018-12-05T11:19:14.559Z,73.36
2018-12-05T11:20:14.327Z,73.18
2018-12-05T11:21:14.593Z,73.55
2018-12-05T11:22:14.362Z,73.46
2018-12-05T11:23:14.634Z,73.93
2018-12-05T11:24:14.650Z,73.65
2018-12-05T11:25:14.660Z,73.65
2018-12-05T11:26:14.435Z,73.46
2018-12-05T11:27:14.444Z,74.03
2018-12-05T11:28:14.715Z,73.93
2018-12-05T11:29:14.734Z,73.74
2018-12-05T11:30:14.491Z,73.84
2018-12-05T11:31:14.511Z,73.93
2018-12-05T11:32:14.790Z,73.93
2018-12-05T11:33:14.799Z,73.74
2018-12-05T11:34:14.566Z,73.65
2018-12-05T11:35:14.579Z,74.03
2018-12-05T11:36:14.603Z,73.55
2018-12-05T11:37:14.884Z,73.55
2018-12-05T11:38:14.634Z,73.46
2018-12-05T11:39:14.906Z,73.84
2018-12-05T11:40:14.927Z,73.74
2018-12-05T11:41:14.694Z,73.93
2018-12-05T11:42:14.699Z,74.03
2018-12-05T11:43:14.724Z,73.65
2018-12-05T11:44:14.742Z,73.93
2018-12-05T11:45:15.011Z,73.36
2018-12-05T11:46:14.772Z,73.84
2018-12-05T11:47:14.786Z,73.84
2018-12-05T11:48:15.073Z,73.93
2018-12-05T11:49:14.830Z,73.27
2018-12-05T11:50:14.845Z,73.84
2018-12-05T11:51:14.871Z,74.03
2018-12-05T11:52:15.134Z,73.84
2018-12-05T11:53:14.892Z,73.65
2018-12-05T11:54:14.910Z,73.65
2018-12-05T11:55:14.935Z,73.84
2018-12-05T11:56:15.200Z,74.03
2018-12-05T11:57:14.977Z,74.22
2018-12-05T11:58:14.981Z,73.74
2018-12-05T11:59:15.002Z,73.74
2018-12-05T12:00:15.273Z,74.22
2018-12-05T12:01:15.032Z,74.03
2018-12-05T12:02:22.119Z,73.93
2018-12-05T12:03:15.075Z,74.12
2018-12-05T12:04:15.093Z,74.22
2018-12-05T12:05:15.103Z,74.22
2018-12-05T12:06:15.383Z,74.03
2018-12-05T12:07:15.139Z,74.03
2018-12-05T12:08:15.165Z,73.84
2018-12-05T12:09:15.448Z,74.12
2018-12-05T12:10:15.203Z,73.93
2018-12-05T12:11:15.215Z,74.03
2018-12-05T12:12:15.227Z,74.41
2018-12-05T12:13:15.554Z,74.41
2018-12-05T12:14:15.263Z,74.22
2018-12-05T12:15:15.279Z,74.22
2018-12-05T12:16:15.302Z,74.22
2018-12-05T12:17:15.318Z,74.12
2018-12-05T12:18:15.591Z,74.12
2018-12-05T12:19:15.612Z,74.12
2018-12-05T12:20:15.625Z,74.22
2018-12-05T12:21:15.641Z,74.03
2018-12-05T12:22:15.406Z,74.12
2018-12-05T12:23:15.745Z,74.31
2018-12-05T12:24:15.453Z,74.03
2018-12-05T12:25:15.462Z,74.03
2018-12-05T12:26:15.739Z,74.31
2018-12-05T12:27:15.752Z,74.03
2018-12-05T12:28:15.511Z,74.03
2018-12-05T12:29:15.524Z,74.22
2018-12-05T12:30:18.567Z,73.93
2018-12-05T12:31:15.561Z,74.12
2018-12-05T12:32:15.850Z,73.84
2018-12-05T12:33:15.598Z,73.93
2018-12-05T12:34:15.878Z,74.12
2018-12-05T12:35:15.632Z,74.22
2018-12-05T12:36:15.909Z,74.03
2018-12-05T12:37:15.925Z,74.03
2018-12-05T12:38:15.688Z,74.03
2018-12-05T12:39:15.705Z,73.93
2018-12-05T12:40:15.981Z,74.41
2018-12-05T12:41:15.747Z,73.93
2018-12-05T12:42:16.029Z,74.12
2018-12-05T12:43:15.781Z,74.22
2018-12-05T12:44:15.794Z,74.03
2018-12-05T12:45:16.069Z,74.03
2018-12-05T12:46:15.831Z,74.12
2018-12-05T12:47:15.847Z,73.93
2018-12-05T12:48:16.126Z,74.03
2018-12-05T12:49:15.880Z,74.03
2018-12-05T12:50:16.154Z,73.93
2018-12-05T12:51:16.170Z,73.93
2018-12-05T12:52:15.937Z,73.97
2018-12-05T12:53:15.954Z,74.03
2018-12-05T12:54:15.966Z,73.93
2018-12-05T12:55:16.244Z,74.12